DRRN/NIM METAR and TAF weather

Enter ICAO airport designator
Station Type Date Time Source
DRRN METAR 2020/10/20 17:00 UTC NOAA

DRRN 201700Z 23005KT 8000 TS VCSH FEW033 FEW040CB 35/13 Q1009 NOSIG


Station Type Date Time Source
DRRN Decoded METAR 2020/10/20 17:00 UTC NOAA

Niamey-Aero, Niger (DRRN) 13-29N 002-10E 227M
Oct 20, 2020 - 01:00 PM EDT / 2020.10.20 1700 UTC
Wind: from the SW (230 degrees) at 6 MPH (5 KT):0
Visibility: 4 mile(s):0
Sky conditions: mostly clear
Weather: thunder; showers in the vicinity; Cumulonimbus clouds observed
Temperature: 95 F (35 C)
Dew Point: 55 F (13 C)
Relative Humidity: 26%
Pressure (altimeter): 29.80 in. Hg (1009 hPa)
ob: DRRN 201700Z 23005KT 8000 TS VCSH FEW033 FEW040CB 35/13 Q1009 NOSIG
cycle: 17

Station Type Date Time Source
DRRN TAF 2020/10/20 12:21 UTC NOAA

TAF DRRN 201100Z 2012/2118 22008KT CAVOK PROB30 2015/2020 TS FEW014 FEW030CB

Example: see airport list